createdAt,value
2022-12-05T00:01:32.442Z,94.52
2022-12-05T00:04:01.370Z,94.58
2022-12-05T00:06:29.819Z,94.53
2022-12-05T00:08:57.097Z,94.64
2022-12-05T00:11:36.295Z,94.49
2022-12-05T00:14:04.259Z,94.30
2022-12-05T00:16:33.416Z,94.72
2022-12-05T00:19:01.660Z,95.02
2022-12-05T00:21:31.603Z,94.44
2022-12-05T00:23:59.947Z,94.64
2022-12-05T00:26:28.513Z,94.48
2022-12-05T00:28:57.245Z,94.71
2022-12-05T00:31:25.702Z,94.02
2022-12-05T00:33:53.992Z,94.48
2022-12-05T00:36:25.715Z,94.29
2022-12-05T00:38:53.828Z,94.06
2022-12-05T00:41:25.913Z,94.17
2022-12-05T00:43:53.647Z,94.36
2022-12-05T00:46:23.198Z,93.70
2022-12-05T00:48:52.447Z,93.68
2022-12-05T00:51:22.920Z,94.25
2022-12-05T00:53:50.386Z,94.66
2022-12-05T00:56:21.051Z,93.79
2022-12-05T00:58:49.335Z,93.63
2022-12-05T01:01:23.161Z,94.23
2022-12-05T01:03:53.370Z,94.83
2022-12-05T01:06:21.862Z,94.38
2022-12-05T01:08:48.901Z,94.38
2022-12-05T01:11:18.559Z,94.02
2022-12-05T01:13:45.899Z,93.39
2022-12-05T01:16:34.701Z,93.30
2022-12-05T01:19:08.177Z,93.98
2022-12-05T01:21:35.264Z,94.04
2022-12-05T01:24:02.557Z,92.94
2022-12-05T01:26:29.452Z,93.25
2022-12-05T01:28:56.578Z,92.96
2022-12-05T01:31:30.099Z,92.84
2022-12-05T01:33:59.680Z,93.12
2022-12-05T01:36:27.753Z,93.75
2022-12-05T01:38:55.745Z,94.13
2022-12-05T01:41:27.936Z,93.16
2022-12-05T01:44:12.937Z,93.66
2022-12-05T01:46:45.289Z,93.87
2022-12-05T01:49:21.366Z,93.14
2022-12-05T01:51:51.798Z,92.88
2022-12-05T01:54:21.095Z,93.31
2022-12-05T01:56:56.472Z,93.37
2022-12-05T01:59:27.495Z,93.14
2022-12-05T02:01:55.119Z,93.63
2022-12-05T02:04:22.228Z,93.75
2022-12-05T02:07:07.408Z,94.70
2022-12-05T02:12:44.249Z,94.75
2022-12-05T02:15:32.204Z,94.77
2022-12-05T02:18:39.902Z,93.94
2022-12-05T02:22:04.534Z,92.91
2022-12-05T02:25:22.534Z,93.23
2022-12-05T02:28:23.940Z,93.30
2022-12-05T02:30:58.423Z,93.87
2022-12-05T02:33:59.505Z,93.48
2022-12-05T02:36:40.117Z,93.95
2022-12-05T02:39:35.889Z,94.03
2022-12-05T02:42:15.600Z,93.26
2022-12-05T02:45:02.183Z,93.57
2022-12-05T02:47:33.842Z,93.55
2022-12-05T02:50:01.555Z,93.25
2022-12-05T02:52:30.451Z,93.08
2022-12-05T02:54:58.420Z,92.87
2022-12-05T02:57:25.387Z,92.79
2022-12-05T02:59:52.586Z,92.71
2022-12-05T03:02:40.080Z,92.69
2022-12-05T03:05:21.522Z,92.46
2022-12-05T03:07:52.363Z,92.50
2022-12-05T03:10:22.537Z,91.71
2022-12-05T03:12:55.188Z,92.53
2022-12-05T03:15:29.071Z,92.26
2022-12-05T03:18:19.297Z,92.32
2022-12-05T03:21:05.611Z,92.96
2022-12-05T03:23:40.391Z,92.80
2022-12-05T03:26:58.388Z,92.90
2022-12-05T03:29:33.836Z,93.42
2022-12-05T03:32:23.671Z,93.38
2022-12-05T03:34:55.865Z,92.38
2022-12-05T03:37:51.974Z,91.99
2022-12-05T03:40:34.026Z,92.50
2022-12-05T03:43:04.040Z,92.44
2022-12-05T03:45:49.400Z,93.22
2022-12-05T03:48:39.356Z,92.72
2022-12-05T03:51:10.843Z,93.35
2022-12-05T03:53:45.303Z,93.62
2022-12-05T03:56:20.090Z,93.28
2022-12-05T03:58:54.080Z,93.65
2022-12-05T04:01:23.837Z,94.50
2022-12-05T04:03:58.178Z,93.61
2022-12-05T04:06:31.982Z,93.41
2022-12-05T04:09:04.721Z,93.21
2022-12-05T04:11:36.315Z,93.69
2022-12-05T04:14:09.586Z,93.60
2022-12-05T04:17:09.576Z,94.77
2022-12-05T04:20:01.731Z,94.36
2022-12-05T04:22:29.327Z,93.93
2022-12-05T04:25:17.402Z,93.78
2022-12-05T04:28:08.654Z,93.85
2022-12-05T04:31:02.512Z,93.76
2022-12-05T04:33:32.456Z,93.81
2022-12-05T04:36:28.751Z,93.69
2022-12-05T04:39:01.700Z,94.03
2022-12-05T04:41:34.678Z,93.91
2022-12-05T04:44:07.920Z,94.16
2022-12-05T04:46:36.229Z,93.87
2022-12-05T04:49:07.892Z,94.06
2022-12-05T04:51:37.359Z,94.22
2022-12-05T04:54:14.847Z,93.98
2022-12-05T04:56:45.017Z,93.07
2022-12-05T04:59:12.281Z,92.93
2022-12-05T05:01:49.092Z,93.05
2022-12-05T05:04:44.703Z,93.58
2022-12-05T05:07:13.863Z,93.61
2022-12-05T05:09:41.732Z,93.72
2022-12-05T05:12:09.865Z,93.83
2022-12-05T05:14:38.179Z,94.65
2022-12-05T05:17:05.277Z,94.32
2022-12-05T05:19:32.188Z,93.69
2022-12-05T05:21:59.200Z,93.08
2022-12-05T05:24:26.654Z,93.05
2022-12-05T05:26:57.316Z,93.87
2022-12-05T05:29:24.705Z,92.71
2022-12-05T05:31:51.632Z,92.64
2022-12-05T05:34:18.571Z,92.29
2022-12-05T05:36:45.518Z,92.75
2022-12-05T05:39:15.438Z,92.17
2022-12-05T05:41:43.197Z,93.54
2022-12-05T05:44:11.023Z,93.27
2022-12-05T05:46:38.249Z,92.67
2022-12-05T05:49:05.622Z,92.61
2022-12-05T05:51:32.929Z,92.84
2022-12-05T05:54:00.844Z,92.62
2022-12-05T05:56:28.921Z,93.88
2022-12-05T05:59:01.840Z,93.50
2022-12-05T06:01:29.974Z,94.00
2022-12-05T06:03:58.185Z,93.65
2022-12-05T06:06:25.769Z,94.18
2022-12-05T06:08:52.865Z,94.51
2022-12-05T06:11:27.430Z,94.21
2022-12-05T06:14:03.072Z,95.24
2022-12-05T06:16:32.112Z,95.21
2022-12-05T06:18:59.618Z,95.15
2022-12-05T06:21:27.234Z,95.85
2022-12-05T06:23:55.035Z,96.29
2022-12-05T06:26:22.847Z,96.86
2022-12-05T06:28:50.011Z,96.56
2022-12-05T06:31:19.921Z,96.43
2022-12-05T06:33:47.187Z,96.54
2022-12-05T06:36:17.269Z,96.70
2022-12-05T06:38:44.712Z,96.36
2022-12-05T06:41:17.024Z,96.23
2022-12-05T06:43:44.278Z,96.29
2022-12-05T06:46:13.272Z,95.94
2022-12-05T06:48:40.520Z,95.92
2022-12-05T06:51:11.461Z,96.10
2022-12-05T06:53:39.077Z,94.91
2022-12-05T06:56:08.487Z,95.64
2022-12-05T06:58:35.425Z,95.62
2022-12-05T07:01:20.875Z,95.22
2022-12-05T07:03:51.749Z,95.27
2022-12-05T07:06:18.771Z,95.21
2022-12-05T07:08:45.754Z,94.77
2022-12-05T07:11:12.662Z,94.45
2022-12-05T07:13:39.763Z,94.08
2022-12-05T07:16:07.574Z,93.93
2022-12-05T07:18:35.553Z,93.61
2022-12-05T07:21:13.839Z,92.93
2022-12-05T07:23:42.944Z,93.31
2022-12-05T07:26:12.308Z,92.80
2022-12-05T07:28:39.263Z,93.04
2022-12-05T07:31:09.383Z,93.06
2022-12-05T07:33:37.520Z,93.13
2022-12-05T07:36:10.463Z,93.23
2022-12-05T07:38:37.720Z,92.83
2022-12-05T07:41:17.363Z,92.91
2022-12-05T07:43:44.350Z,92.68
2022-12-05T07:46:13.988Z,92.71
2022-12-05T07:48:41.311Z,92.54
2022-12-05T07:51:09.996Z,92.97
2022-12-05T07:53:38.090Z,92.62
2022-12-05T07:56:07.367Z,93.13
2022-12-05T07:58:35.472Z,92.63
2022-12-05T08:01:10.135Z,92.43
2022-12-05T08:03:40.559Z,92.40
2022-12-05T08:06:18.569Z,92.68
2022-12-05T08:08:46.116Z,91.87
2022-12-05T08:11:15.650Z,91.25
2022-12-05T08:13:43.386Z,92.17
2022-12-05T08:16:12.839Z,92.34
2022-12-05T08:18:40.604Z,91.30
2022-12-05T08:21:13.987Z,91.00
2022-12-05T08:23:41.183Z,90.19
2022-12-05T08:26:11.313Z,89.96
2022-12-05T08:28:38.575Z,89.88
2022-12-05T08:31:13.964Z,89.39
2022-12-05T08:33:41.688Z,88.28
2022-12-05T08:36:11.862Z,87.88
2022-12-05T08:38:39.433Z,87.75
2022-12-05T08:41:09.665Z,88.07
2022-12-05T08:43:37.161Z,88.85
2022-12-05T08:46:04.888Z,88.01
2022-12-05T08:48:33.003Z,88.51
2022-12-05T08:51:04.454Z,87.66
2022-12-05T08:53:31.370Z,88.03
2022-12-05T08:56:02.567Z,88.43
2022-12-05T08:58:30.315Z,87.37
2022-12-05T09:01:23.665Z,86.95
2022-12-05T09:03:50.610Z,87.00
2022-12-05T09:06:19.831Z,86.34
2022-12-05T09:08:47.252Z,86.88
2022-12-05T09:11:17.854Z,85.95
2022-12-05T09:13:45.538Z,85.56
2022-12-05T09:16:15.736Z,85.72
2022-12-05T09:18:43.353Z,84.86
2022-12-05T09:21:17.104Z,85.42
2022-12-05T09:23:45.016Z,84.90
2022-12-05T09:26:15.154Z,83.74
2022-12-05T09:28:43.179Z,84.87
2022-12-05T09:31:17.788Z,83.96
2022-12-05T09:33:45.747Z,84.54
2022-12-05T09:36:16.024Z,83.50
2022-12-05T09:38:43.537Z,82.93
2022-12-05T09:41:47.673Z,83.20
2022-12-05T09:44:36.508Z,81.16
2022-12-05T09:47:25.399Z,81.65
2022-12-05T09:50:17.449Z,81.53
2022-12-05T09:53:01.106Z,81.28
2022-12-05T09:55:52.861Z,81.80
2022-12-05T09:58:29.058Z,80.77
2022-12-05T10:01:03.568Z,80.64
2022-12-05T10:03:46.178Z,82.25
2022-12-05T10:06:19.543Z,80.93
2022-12-05T10:09:31.083Z,81.03
2022-12-05T10:12:38.061Z,81.03
2022-12-05T10:15:35.534Z,80.45
2022-12-05T10:18:22.699Z,79.64
2022-12-05T10:21:05.799Z,80.40
2022-12-05T10:23:58.243Z,79.81
2022-12-05T10:26:32.625Z,79.51
2022-12-05T10:29:17.824Z,78.79
2022-12-05T10:31:47.442Z,79.22
2022-12-05T10:34:27.384Z,79.84
2022-12-05T10:37:01.774Z,78.79
2022-12-05T10:39:28.846Z,78.86
2022-12-05T10:41:56.965Z,78.69
2022-12-05T10:44:23.908Z,79.16
2022-12-05T10:46:51.053Z,79.27
2022-12-05T10:49:19.205Z,78.92
2022-12-05T10:51:46.934Z,78.89
2022-12-05T10:54:26.290Z,77.84
2022-12-05T10:56:54.429Z,77.68
2022-12-05T10:59:26.970Z,77.99
2022-12-05T11:01:57.258Z,78.05
2022-12-05T11:04:43.711Z,77.23
2022-12-05T11:07:29.236Z,77.98
2022-12-05T11:09:56.752Z,78.55
2022-12-05T11:12:28.087Z,78.37
2022-12-05T11:15:16.704Z,77.91
2022-12-05T11:17:43.621Z,78.17
2022-12-05T11:20:16.300Z,76.67
2022-12-05T11:22:47.266Z,77.72
2022-12-05T11:25:36.511Z,77.72
2022-12-05T11:28:18.672Z,77.86
2022-12-05T11:31:06.356Z,77.69
2022-12-05T11:33:35.401Z,77.29
2022-12-05T11:36:34.232Z,77.42
2022-12-05T11:39:01.372Z,78.00
2022-12-05T11:41:45.355Z,77.49
2022-12-05T11:44:24.051Z,76.73
2022-12-05T11:47:09.495Z,76.71
2022-12-05T11:50:00.698Z,76.52
2022-12-05T11:52:30.497Z,77.07
2022-12-05T11:55:12.294Z,76.92
2022-12-05T11:57:57.310Z,76.65
2022-12-05T12:00:42.533Z,77.44
2022-12-05T12:03:21.601Z,77.08
2022-12-05T12:05:57.772Z,77.44
2022-12-05T12:08:43.485Z,78.31
2022-12-05T12:11:41.764Z,77.51
2022-12-05T12:14:19.514Z,77.35
2022-12-05T12:17:21.244Z,77.25
2022-12-05T12:20:18.915Z,77.26
2022-12-05T12:23:20.072Z,77.08
2022-12-05T12:26:06.540Z,77.82
2022-12-05T12:29:04.778Z,77.37
2022-12-05T12:32:12.245Z,77.14
2022-12-05T12:34:57.633Z,77.38
2022-12-05T12:37:35.293Z,77.57
2022-12-05T12:40:18.236Z,77.60
2022-12-05T12:42:51.084Z,78.11
2022-12-05T12:45:39.654Z,79.26
2022-12-05T12:48:15.668Z,79.39
2022-12-05T12:50:45.690Z,79.50
2022-12-05T12:53:36.793Z,79.73
2022-12-05T12:56:37.065Z,79.71
2022-12-05T12:59:25.754Z,79.46
2022-12-05T13:02:48.490Z,79.59
2022-12-05T13:05:32.810Z,80.74
2022-12-05T13:08:38.427Z,81.44
2022-12-05T13:11:10.119Z,80.94
2022-12-05T13:13:42.117Z,80.68
2022-12-05T13:16:13.393Z,80.84
2022-12-05T13:18:40.419Z,80.35
2022-12-05T13:21:09.437Z,80.25
2022-12-05T13:24:03.895Z,80.55
2022-12-05T13:26:34.737Z,80.04
2022-12-05T13:29:04.113Z,79.56
2022-12-05T13:31:46.117Z,79.83
2022-12-05T13:34:29.563Z,79.86
2022-12-05T13:37:17.951Z,79.40
2022-12-05T13:40:12.986Z,79.52
2022-12-05T13:42:40.199Z,79.21
2022-12-05T13:45:11.878Z,78.83
2022-12-05T13:47:56.969Z,79.17
2022-12-05T13:50:54.436Z,79.58
2022-12-05T13:53:42.605Z,79.44
2022-12-05T13:56:12.693Z,79.69
2022-12-05T13:58:54.154Z,79.74
2022-12-05T14:01:27.542Z,79.46
2022-12-05T14:03:58.675Z,79.31
2022-12-05T14:06:41.693Z,79.49
2022-12-05T14:09:17.688Z,79.46
2022-12-05T14:12:12.687Z,79.39
2022-12-05T14:14:58.517Z,79.68
2022-12-05T14:17:31.332Z,79.73
2022-12-05T14:20:10.941Z,79.78
2022-12-05T14:22:55.490Z,80.82
2022-12-05T14:25:58.194Z,80.84
2022-12-05T14:28:50.322Z,80.67
2022-12-05T14:31:40.637Z,81.30
2022-12-05T14:34:17.400Z,81.84
2022-12-05T14:36:57.295Z,82.02
2022-12-05T14:39:44.075Z,81.76
2022-12-05T14:42:23.017Z,81.68
2022-12-05T14:44:52.650Z,81.69
2022-12-05T14:48:06.184Z,82.41
2022-12-05T14:50:39.561Z,83.00
2022-12-05T14:53:15.620Z,83.03
2022-12-05T14:56:07.053Z,82.70
2022-12-05T14:58:57.235Z,82.57
2022-12-05T15:01:33.021Z,82.75
2022-12-05T15:04:12.474Z,83.00
2022-12-05T15:06:53.062Z,82.79
2022-12-05T15:09:39.173Z,83.13
2022-12-05T15:12:22.667Z,83.51
2022-12-05T15:15:13.817Z,83.71
2022-12-05T15:17:58.395Z,83.57
2022-12-05T15:20:58.074Z,83.88
2022-12-05T15:23:45.732Z,83.82
2022-12-05T15:29:14.237Z,83.48
2022-12-05T15:31:54.581Z,83.39
2022-12-05T15:34:24.914Z,83.62
2022-12-05T15:37:09.265Z,83.05
2022-12-05T15:40:06.469Z,83.40
2022-12-05T15:42:41.352Z,83.51
2022-12-05T15:45:14.794Z,83.20
2022-12-05T15:47:45.306Z,83.32
2022-12-05T15:50:42.511Z,83.23
2022-12-05T15:53:20.815Z,83.42
2022-12-05T15:55:53.662Z,84.37
2022-12-05T15:58:32.815Z,85.24
2022-12-05T16:01:07.874Z,84.98
2022-12-05T16:04:00.310Z,84.55
2022-12-05T16:06:40.814Z,86.04
2022-12-05T16:09:15.308Z,86.08
2022-12-05T16:11:58.366Z,85.70
2022-12-05T16:14:59.026Z,86.00
2022-12-05T16:17:17.684Z,86.05
2022-12-05T16:19:45.107Z,85.79
2022-12-05T16:22:11.985Z,85.83
2022-12-05T16:24:45.523Z,85.98
2022-12-05T16:27:26.519Z,85.64
2022-12-05T16:30:22.091Z,85.23
2022-12-05T16:32:51.652Z,85.91
2022-12-05T16:35:37.256Z,86.47
2022-12-05T16:38:11.495Z,86.21
2022-12-05T16:40:54.114Z,86.31
2022-12-05T16:43:33.352Z,85.70
2022-12-05T16:46:28.049Z,85.47
2022-12-05T16:49:19.583Z,85.48
2022-12-05T16:51:55.552Z,85.53
2022-12-05T16:54:22.483Z,85.23
2022-12-05T16:56:49.460Z,85.04
2022-12-05T16:59:43.858Z,85.54
2022-12-05T17:02:17.450Z,85.88
2022-12-05T17:04:46.231Z,86.62
2022-12-05T17:07:13.166Z,86.56
2022-12-05T17:09:40.080Z,86.35
2022-12-05T17:12:24.715Z,86.47
2022-12-05T17:14:51.592Z,85.97
2022-12-05T17:17:19.240Z,85.96
2022-12-05T17:19:46.291Z,85.74
2022-12-05T17:22:15.865Z,85.69
2022-12-05T17:24:43.078Z,85.26
2022-12-05T17:27:12.352Z,85.40
2022-12-05T17:29:39.426Z,85.67
2022-12-05T17:32:06.386Z,85.53
2022-12-05T17:34:33.326Z,85.58
2022-12-05T17:37:00.591Z,85.68
2022-12-05T17:39:28.782Z,85.65
2022-12-05T17:41:56.907Z,85.92
2022-12-05T17:44:24.061Z,85.57
2022-12-05T17:46:51.087Z,85.79
2022-12-05T17:49:18.627Z,85.41
2022-12-05T17:52:20.430Z,85.44
2022-12-05T17:54:33.594Z,85.27
2022-12-05T17:57:00.585Z,85.23
2022-12-05T17:59:27.574Z,85.07
2022-12-05T18:01:54.516Z,85.44
2022-12-05T18:04:23.553Z,85.41
2022-12-05T18:06:51.213Z,84.91
2022-12-05T18:09:18.259Z,84.83
2022-12-05T18:11:45.325Z,84.95
2022-12-05T18:14:12.305Z,85.04
2022-12-05T18:16:39.374Z,85.48
2022-12-05T18:19:08.393Z,85.15
2022-12-05T18:21:35.993Z,84.97
2022-12-05T18:24:02.981Z,84.81
2022-12-05T18:26:30.100Z,84.89
2022-12-05T18:28:59.119Z,84.98
2022-12-05T18:31:26.432Z,85.67
2022-12-05T18:33:53.479Z,85.03
2022-12-05T18:36:21.483Z,84.37
2022-12-05T18:38:56.296Z,84.82
2022-12-05T18:41:27.427Z,85.33
2022-12-05T18:43:54.330Z,85.15
2022-12-05T18:46:21.437Z,85.55
2022-12-05T18:48:49.180Z,85.01
2022-12-05T18:51:19.016Z,85.29
2022-12-05T18:53:51.980Z,85.14
2022-12-05T18:56:25.875Z,85.42
2022-12-05T18:59:13.299Z,85.62
2022-12-05T19:01:42.194Z,85.52
2022-12-05T19:04:14.866Z,86.04
2022-12-05T19:06:47.336Z,85.56
2022-12-05T19:09:17.032Z,85.56
2022-12-05T19:11:47.720Z,86.58
2022-12-05T19:14:16.907Z,88.40
2022-12-05T19:16:43.948Z,88.76
2022-12-05T19:19:13.974Z,88.71
2022-12-05T19:21:41.428Z,88.75
2022-12-05T19:24:10.914Z,88.55
2022-12-05T19:26:38.205Z,88.68
2022-12-05T19:29:05.508Z,88.75
2022-12-05T19:31:33.686Z,88.19
2022-12-05T19:34:02.384Z,88.10
2022-12-05T19:36:40.970Z,88.63
2022-12-05T19:39:30.936Z,88.45
2022-12-05T19:41:59.587Z,88.65
2022-12-05T19:44:27.587Z,88.19
2022-12-05T19:46:55.200Z,89.06
2022-12-05T19:49:23.383Z,90.43
2022-12-05T19:51:50.507Z,91.01
2022-12-05T19:54:18.067Z,91.60
2022-12-05T19:56:45.106Z,91.37
2022-12-05T19:59:16.005Z,91.39
2022-12-05T20:01:43.372Z,91.04
2022-12-05T20:04:15.846Z,90.97
2022-12-05T20:06:45.490Z,91.30
2022-12-05T20:09:14.307Z,90.80
2022-12-05T20:11:44.134Z,91.33
2022-12-05T20:14:13.232Z,90.95
2022-12-05T20:16:40.628Z,91.82
2022-12-05T20:19:07.656Z,92.13
2022-12-05T20:21:36.565Z,92.08
2022-12-05T20:24:05.467Z,92.39
2022-12-05T20:26:38.122Z,92.16
2022-12-05T20:29:06.023Z,92.09
2022-12-05T20:31:36.244Z,92.10
2022-12-05T20:34:04.295Z,91.76
2022-12-05T20:36:33.949Z,92.03
2022-12-05T20:39:10.951Z,92.76
2022-12-05T20:41:37.901Z,92.53
2022-12-05T20:44:07.751Z,92.43
2022-12-05T20:46:35.596Z,92.98
2022-12-05T20:49:02.861Z,92.55
2022-12-05T20:51:34.332Z,92.72
2022-12-05T20:54:03.238Z,92.72
2022-12-05T20:56:32.436Z,92.33
2022-12-05T20:59:01.903Z,92.19
2022-12-05T21:01:31.412Z,92.79
2022-12-05T21:03:59.130Z,92.80
2022-12-05T21:06:28.959Z,93.03
2022-12-05T21:08:56.340Z,92.88
2022-12-05T21:11:25.772Z,92.95
2022-12-05T21:13:56.617Z,93.38
2022-12-05T21:16:24.389Z,93.92
2022-12-05T21:18:52.001Z,93.65
2022-12-05T21:21:22.432Z,93.90
2022-12-05T21:23:54.292Z,93.88
2022-12-05T21:26:22.503Z,93.67
2022-12-05T21:28:49.768Z,93.74
2022-12-05T21:31:20.457Z,93.52
2022-12-05T21:33:50.398Z,93.46
2022-12-05T21:36:18.643Z,93.39
2022-12-05T21:38:48.434Z,93.29
2022-12-05T21:41:19.444Z,93.61
2022-12-05T21:43:52.458Z,93.63
2022-12-05T21:46:21.419Z,93.66
2022-12-05T21:48:48.323Z,93.11
2022-12-05T21:51:15.458Z,92.70
2022-12-05T21:53:42.642Z,92.90
2022-12-05T21:56:12.773Z,93.11
2022-12-05T21:58:42.349Z,92.58
2022-12-05T22:01:17.553Z,93.47
2022-12-05T22:03:45.216Z,92.97
2022-12-05T22:06:13.575Z,93.28
2022-12-05T22:08:40.702Z,93.11
2022-12-05T22:11:13.681Z,93.78
2022-12-05T22:13:41.559Z,93.36
2022-12-05T22:16:09.208Z,93.64
2022-12-05T22:18:36.747Z,94.06
2022-12-05T22:21:06.487Z,93.93
2022-12-05T22:23:34.677Z,93.71
2022-12-05T22:26:04.928Z,93.92
2022-12-05T22:28:32.791Z,94.25
2022-12-05T22:31:01.644Z,94.42
2022-12-05T22:33:29.806Z,94.93
2022-12-05T22:35:59.801Z,95.10
2022-12-05T22:38:29.663Z,94.47
2022-12-05T22:40:59.167Z,94.84
2022-12-05T22:43:27.704Z,94.66
2022-12-05T22:45:54.780Z,94.54
2022-12-05T22:48:22.847Z,94.37
2022-12-05T22:50:52.326Z,94.48
2022-12-05T22:53:21.422Z,93.91
2022-12-05T22:55:48.957Z,93.89
2022-12-05T22:58:16.154Z,93.67
2022-12-05T23:00:43.588Z,93.94
2022-12-05T23:03:12.897Z,94.08
2022-12-05T23:05:43.964Z,94.26
2022-12-05T23:08:12.081Z,93.73
2022-12-05T23:10:39.789Z,93.60
2022-12-05T23:13:07.938Z,93.81
2022-12-05T23:15:38.105Z,93.74
2022-12-05T23:18:05.257Z,94.20
2022-12-05T23:20:32.794Z,94.06
2022-12-05T23:22:59.679Z,94.19
2022-12-05T23:25:26.778Z,93.79
2022-12-05T23:27:53.742Z,93.96
2022-12-05T23:30:20.881Z,94.29
2022-12-05T23:32:47.934Z,93.53
2022-12-05T23:35:15.087Z,93.68
2022-12-05T23:37:42.133Z,93.96
2022-12-05T23:40:09.459Z,93.87
2022-12-05T23:42:36.377Z,93.79
2022-12-05T23:45:03.400Z,93.91
2022-12-05T23:47:30.922Z,94.34
2022-12-05T23:49:58.211Z,94.29
2022-12-05T23:52:25.459Z,94.26
2022-12-05T23:54:52.362Z,93.49
2022-12-05T23:57:19.401Z,94.09
2022-12-05T23:59:46.662Z,94.23
